Nina — ICMG — position and weather

sailwx.info

Track history (hours):
 
Tides and Currents Weather Stations Pressure Air Temp Water Temp Dewpoint Dewpoint Depression Visibility Wind Speed Wind Dir Waves Ship Positions

Nina

Last reported at 2016-Sep-26 13:23 UTC. Time now 2016-Sep-29 03:25 UTC.
Position N 41°02' E 028°60'.

Length 180 m; draft 7.3 m.

Type: Tanker. MMSI: 247239700.

Date/timePositionNaut miles runAvg speedWind from/ knotsBaromVisibWave heightAir tempDewpointWater temp
2016-Sep-26 13:23N 41°02' E 028°60'7 0.3
2016-Sep-25 12:24N 40°57' E 028°52'0 0.0
2016-Sep-25 04:32N 40°57' E 028°53'  
2016-Sep-20 02:33N 44°43' E 013°29'3010.0
2016-Sep-19 23:33N 45°08' E 013°06'32 8.1
2016-Sep-19 19:33N 45°36' E 013°28'9 9.1
2016-Sep-19 18:33N 45°37' E 013°41'0 0.2
2016-Sep-19 16:30N 45°38' E 013°41'0 0.0
2016-Sep-19 14:33N 45°38' E 013°41'0 0.0
2016-Sep-19 13:33N 45°38' E 013°41'0 0.0
2016-Sep-19 12:33N 45°38' E 013°41'2 1.7
2016-Sep-19 11:33N 45°38' E 013°39'5 2.7
2016-Sep-19 09:29N 45°37' E 013°47'0 0.0
2016-Sep-17 22:33N 45°37' E 013°47'0 0.0
2016-Sep-17 21:29N 45°37' E 013°47'0 0.3
2016-Sep-17 20:33N 45°37' E 013°46'3 2.4
2016-Sep-17 19:14N 45°38' E 013°42'0 0.0
2016-Sep-17 13:32N 45°38' E 013°42'0 0.0
2016-Sep-17 12:32N 45°38' E 013°42'0 0.0
2016-Sep-17 10:32N 45°38' E 013°42'0 0.1
2016-Sep-17 09:32N 45°38' E 013°42'0 0.0
2016-Sep-17 08:29N 45°38' E 013°42'0 0.0
2016-Sep-17 07:32N 45°38' E 013°42'0 0.0
2016-Sep-17 05:32N 45°38' E 013°42'0 0.0
2016-Sep-17 04:29N 45°38' E 013°42'0 0.0
2016-Sep-17 00:29N 45°38' E 013°42'0 0.0
2016-Sep-16 17:32N 45°38' E 013°42'0 0.0
2016-Sep-16 15:32N 45°38' E 013°42'  
Track history (hours):
 
Tides and Currents Weather Stations Pressure Air Temp Water Temp Dewpoint Dewpoint Depression Visibility Wind Speed Wind Dir Waves Ship Positions

Nina

Last reported at 2016-Sep-26 13:23 UTC. Time now 2016-Sep-29 03:25 UTC.
Position N 41°02' E 028°60'.

Length 180 m; draft 7.3 m.

Type: Tanker. MMSI: 247239700.

Date/timePositionNaut miles runAvg speedWind from/ knotsBaromVisibWave heightAir tempDewpointWater temp
2016-Sep-26 13:23N 41°02' E 028°60'7 0.3
2016-Sep-25 12:24N 40°57' E 028°52'0 0.0
2016-Sep-25 04:32N 40°57' E 028°53'  
2016-Sep-20 02:33N 44°43' E 013°29'3010.0
2016-Sep-19 23:33N 45°08' E 013°06'32 8.1
2016-Sep-19 19:33N 45°36' E 013°28'9 9.1
2016-Sep-19 18:33N 45°37' E 013°41'0 0.2
2016-Sep-19 16:30N 45°38' E 013°41'0 0.0
2016-Sep-19 14:33N 45°38' E 013°41'0 0.0
2016-Sep-19 13:33N 45°38' E 013°41'0 0.0
2016-Sep-19 12:33N 45°38' E 013°41'2 1.7
2016-Sep-19 11:33N 45°38' E 013°39'5 2.7
2016-Sep-19 09:29N 45°37' E 013°47'0 0.0
2016-Sep-17 22:33N 45°37' E 013°47'0 0.0
2016-Sep-17 21:29N 45°37' E 013°47'0 0.3
2016-Sep-17 20:33N 45°37' E 013°46'3 2.4
2016-Sep-17 19:14N 45°38' E 013°42'0 0.0
2016-Sep-17 13:32N 45°38' E 013°42'0 0.0
2016-Sep-17 12:32N 45°38' E 013°42'0 0.0
2016-Sep-17 10:32N 45°38' E 013°42'0 0.1
2016-Sep-17 09:32N 45°38' E 013°42'0 0.0
2016-Sep-17 08:29N 45°38' E 013°42'0 0.0
2016-Sep-17 07:32N 45°38' E 013°42'0 0.0
2016-Sep-17 05:32N 45°38' E 013°42'0 0.0
2016-Sep-17 04:29N 45°38' E 013°42'0 0.0
2016-Sep-17 00:29N 45°38' E 013°42'0 0.0
2016-Sep-16 17:32N 45°38' E 013°42'0 0.0
2016-Sep-16 15:32N 45°38' E 013°42'  

Dump ship's entire track history